Terminal Aerodrome Forecast
Issued by NWS

Home | Current Version | Previous Version | Graphics & Text | Print | Product List | Glossary On
Versions: 1 2 3 4 5 6 7 8 9 10 11 12 13 14 15 16
000
FTUS43 KFGF 270500
TAFBJI
TAF
KBJI 270520Z 2706/2806 27013KT P6SM BKN040
     FM271200 31015G23KT P6SM VCSH BKN025
     FM271500 34018G24KT P6SM VCSH BKN020
     FM280300 32013KT P6SM BKN050=

USA.gov is the U.S. government's official web portal to all federal, state and local government web resources and services.